createdAt,value
2019-05-17T00:00:10.231Z,74.05
2019-05-17T00:00:47.496Z,73.90
2019-05-17T00:01:26.873Z,73.89
2019-05-17T00:02:02.137Z,73.85
2019-05-17T00:02:38.089Z,73.84
2019-05-17T00:03:16.892Z,73.94
2019-05-17T00:03:52.346Z,74.00
2019-05-17T00:04:28.452Z,74.01
2019-05-17T00:05:06.939Z,73.96
2019-05-17T00:05:43.546Z,73.90
2019-05-17T00:06:19.571Z,73.93
2019-05-17T00:06:57.054Z,74.03
2019-05-17T00:07:32.928Z,74.04
2019-05-17T00:08:08.951Z,73.98
2019-05-17T00:08:47.306Z,73.82
2019-05-17T00:09:23.487Z,73.36
2019-05-17T00:09:59.171Z,72.90
2019-05-17T00:10:37.622Z,73.13
2019-05-17T00:11:13.086Z,73.46
2019-05-17T00:11:48.920Z,73.50
2019-05-17T00:12:27.139Z,73.31
2019-05-17T00:13:03.253Z,73.58
2019-05-17T00:13:39.239Z,73.81
2019-05-17T00:14:16.778Z,73.83
2019-05-17T00:14:53.331Z,73.88
2019-05-17T00:15:29.531Z,73.86
2019-05-17T00:16:07.259Z,73.83
2019-05-17T00:16:43.238Z,73.89
2019-05-17T00:17:18.893Z,73.92
2019-05-17T00:17:56.967Z,73.63
2019-05-17T00:18:32.516Z,73.45
2019-05-17T00:19:08.159Z,73.39
2019-05-17T00:19:46.361Z,73.51
2019-05-17T00:20:22.098Z,73.69
2019-05-17T00:20:58.896Z,73.75
2019-05-17T00:21:36.917Z,73.71
2019-05-17T00:22:12.987Z,73.76
2019-05-17T00:22:48.608Z,73.89
2019-05-17T00:23:26.732Z,73.92
2019-05-17T00:24:02.485Z,73.58
2019-05-17T00:24:38.223Z,73.57
2019-05-17T00:25:16.605Z,73.59
2019-05-17T00:25:52.661Z,73.56
2019-05-17T00:26:28.292Z,73.66
2019-05-17T00:27:06.561Z,73.40
2019-05-17T00:27:41.956Z,72.89
2019-05-17T00:28:17.892Z,73.17
2019-05-17T00:28:56.153Z,73.53
2019-05-17T00:29:31.861Z,73.77
2019-05-17T00:30:09.443Z,73.96
2019-05-17T00:30:46.530Z,74.06
2019-05-17T00:31:22.507Z,74.05
2019-05-17T00:31:58.182Z,74.07
2019-05-17T00:32:36.736Z,74.02
2019-05-17T00:33:12.651Z,74.00
2019-05-17T00:33:48.265Z,74.06
2019-05-17T00:34:26.908Z,73.82
2019-05-17T00:35:02.868Z,73.76
2019-05-17T00:35:38.550Z,73.87
2019-05-17T00:36:14.540Z,73.94
2019-05-17T00:36:50.343Z,73.73
2019-05-17T00:37:26.496Z,73.73
2019-05-17T00:38:02.688Z,73.86
2019-05-17T00:38:48.208Z,73.92
2019-05-17T00:39:16.710Z,73.89
2019-05-17T00:39:52.908Z,73.41
2019-05-17T00:40:29.272Z,73.51
2019-05-17T00:41:06.921Z,73.82
2019-05-17T00:41:42.609Z,73.69
2019-05-17T00:42:18.775Z,73.44
2019-05-17T00:42:54.467Z,73.60
2019-05-17T00:43:30.954Z,73.58
2019-05-17T00:44:07.140Z,73.21
2019-05-17T00:44:43.174Z,72.48
2019-05-17T00:45:20.391Z,72.58
2019-05-17T00:45:57.489Z,73.10
2019-05-17T00:46:33.307Z,73.57
2019-05-17T00:47:09.652Z,73.77
2019-05-17T00:47:46.812Z,73.68
2019-05-17T00:48:22.847Z,73.29
2019-05-17T00:48:59.385Z,73.45
2019-05-17T00:49:37.208Z,73.35
2019-05-17T00:50:13.501Z,73.48
2019-05-17T00:50:53.653Z,73.74
2019-05-17T00:51:28.112Z,73.60
2019-05-17T00:52:04.088Z,72.93
2019-05-17T00:52:40.077Z,72.91
2019-05-17T00:53:16.400Z,72.91
2019-05-17T00:53:52.661Z,72.65
2019-05-17T00:54:29.216Z,72.70
2019-05-17T00:55:06.721Z,72.63
2019-05-17T00:55:42.894Z,72.75
2019-05-17T00:56:18.897Z,72.93
2019-05-17T00:56:56.674Z,73.14
2019-05-17T00:57:32.536Z,73.18
2019-05-17T00:58:08.543Z,73.25
2019-05-17T00:58:47.586Z,72.66
2019-05-17T00:59:23.294Z,72.67
2019-05-17T00:59:59.360Z,72.80
2019-05-17T01:00:37.719Z,72.84
2019-05-17T01:01:12.645Z,73.00
2019-05-17T01:01:48.650Z,73.00
2019-05-17T01:02:26.859Z,72.91
2019-05-17T01:03:02.177Z,72.82
2019-05-17T01:03:38.191Z,72.78
2019-05-17T01:04:17.108Z,72.37
2019-05-17T01:04:52.654Z,72.14
2019-05-17T01:05:28.733Z,72.10
2019-05-17T01:06:06.328Z,72.21
2019-05-17T01:06:42.454Z,72.32
2019-05-17T01:07:18.460Z,72.21
2019-05-17T01:07:54.315Z,72.33
2019-05-17T01:08:30.346Z,72.42
2019-05-17T01:09:08.184Z,72.41
2019-05-17T01:09:47.124Z,72.31
2019-05-17T01:10:22.101Z,72.11
2019-05-17T01:10:58.658Z,72.46
2019-05-17T01:11:36.622Z,72.61
2019-05-17T01:12:12.902Z,72.70
2019-05-17T01:12:49.262Z,72.62
2019-05-17T01:13:26.683Z,72.60
2019-05-17T01:14:02.639Z,72.61
2019-05-17T01:14:39.150Z,72.80
2019-05-17T01:15:16.736Z,72.98
2019-05-17T01:15:52.587Z,73.07
2019-05-17T01:16:28.710Z,72.82
2019-05-17T01:17:07.000Z,72.76
2019-05-17T01:17:42.417Z,72.33
2019-05-17T01:18:18.802Z,72.05
2019-05-17T01:18:57.188Z,72.30
2019-05-17T01:19:32.413Z,72.61
2019-05-17T01:20:09.867Z,72.65
2019-05-17T01:20:47.475Z,72.60
2019-05-17T01:21:23.666Z,72.80
2019-05-17T01:22:00.155Z,72.79
2019-05-17T01:22:36.682Z,72.79
2019-05-17T01:23:12.651Z,72.42
2019-05-17T01:23:48.972Z,72.43
2019-05-17T01:24:27.307Z,72.79
2019-05-17T01:25:03.094Z,72.70
2019-05-17T01:25:39.568Z,72.75
2019-05-17T01:26:18.268Z,72.55
2019-05-17T01:26:53.292Z,72.64
2019-05-17T01:27:29.771Z,72.84
2019-05-17T01:28:07.593Z,72.99
2019-05-17T01:28:43.723Z,73.07
2019-05-17T01:29:19.733Z,72.83
2019-05-17T01:29:57.292Z,72.53
2019-05-17T01:30:33.138Z,72.93
2019-05-17T01:31:09.192Z,72.77
2019-05-17T01:31:46.540Z,72.77
2019-05-17T01:32:22.459Z,72.99
2019-05-17T01:32:58.575Z,73.08
2019-05-17T01:33:36.744Z,73.17
2019-05-17T01:34:12.560Z,73.34
2019-05-17T01:34:48.684Z,73.41
2019-05-17T01:35:26.591Z,73.50
2019-05-17T01:36:02.581Z,73.46
2019-05-17T01:36:38.562Z,73.50
2019-05-17T01:37:16.995Z,73.63
2019-05-17T01:37:52.530Z,73.77
2019-05-17T01:38:28.741Z,73.77
2019-05-17T01:39:17.040Z,73.71
2019-05-17T01:39:43.227Z,73.50
2019-05-17T01:40:19.261Z,73.40
2019-05-17T01:40:56.425Z,73.23
2019-05-17T01:41:32.815Z,72.84
2019-05-17T01:42:08.815Z,73.22
2019-05-17T01:42:46.624Z,73.48
2019-05-17T01:43:21.951Z,73.62
2019-05-17T01:43:58.301Z,73.72
2019-05-17T01:44:34.148Z,73.79
2019-05-17T01:45:13.359Z,73.63
2019-05-17T01:45:49.447Z,74.00
2019-05-17T01:46:27.614Z,73.56
2019-05-17T01:47:03.311Z,73.40
2019-05-17T01:47:39.340Z,73.18
2019-05-17T01:48:16.373Z,73.40
2019-05-17T01:48:52.579Z,73.04
2019-05-17T01:49:28.697Z,73.34
2019-05-17T01:50:06.822Z,73.32
2019-05-17T01:50:42.358Z,73.40
2019-05-17T01:51:18.643Z,73.82
2019-05-17T01:51:56.666Z,74.38
2019-05-17T01:52:32.237Z,74.89
2019-05-17T01:53:08.350Z,75.13
2019-05-17T01:53:46.838Z,75.48
2019-05-17T01:54:22.870Z,75.56
2019-05-17T01:54:59.095Z,75.07
2019-05-17T01:55:37.195Z,75.49
2019-05-17T01:56:12.341Z,75.71
2019-05-17T01:56:48.410Z,75.62
2019-05-17T01:57:24.618Z,75.34
2019-05-17T01:58:00.660Z,74.72
2019-05-17T01:58:36.872Z,74.67
2019-05-17T01:59:12.715Z,74.99
2019-05-17T01:59:48.384Z,75.59
2019-05-17T02:00:26.544Z,75.47
2019-05-17T02:01:02.640Z,76.00
2019-05-17T02:01:38.676Z,75.78
2019-05-17T02:02:17.465Z,75.52
2019-05-17T02:02:54.346Z,75.44
2019-05-17T02:03:30.008Z,76.24
2019-05-17T02:04:06.581Z,76.49
2019-05-17T02:04:42.574Z,76.55
2019-05-17T02:05:18.716Z,76.45
2019-05-17T02:05:56.615Z,76.89
2019-05-17T02:06:33.062Z,77.02
2019-05-17T02:07:09.125Z,77.57
2019-05-17T02:07:46.555Z,77.81
2019-05-17T02:08:23.023Z,77.93
2019-05-17T02:08:59.171Z,77.48
2019-05-17T02:09:41.204Z,77.47
2019-05-17T02:10:13.750Z,77.15
2019-05-17T02:10:49.473Z,76.96
2019-05-17T02:11:26.916Z,76.83
2019-05-17T02:12:03.183Z,76.95
2019-05-17T02:12:41.890Z,76.86
2019-05-17T02:13:18.237Z,77.32
2019-05-17T02:13:56.172Z,76.66
2019-05-17T02:14:31.960Z,76.84
2019-05-17T02:15:08.858Z,77.10
2019-05-17T02:15:47.017Z,77.75
2019-05-17T02:16:22.698Z,77.82
2019-05-17T02:16:59.145Z,78.27
2019-05-17T02:17:37.182Z,77.89
2019-05-17T02:18:12.438Z,77.29
2019-05-17T02:18:48.538Z,77.21
2019-05-17T02:19:26.563Z,77.02
2019-05-17T02:20:02.364Z,77.36
2019-05-17T02:20:38.779Z,77.51
2019-05-17T02:21:16.779Z,76.97
2019-05-17T02:21:52.069Z,77.13
2019-05-17T02:22:28.115Z,77.21
2019-05-17T02:23:04.064Z,77.16
2019-05-17T02:23:39.850Z,76.90
2019-05-17T02:24:16.936Z,77.38
2019-05-17T02:24:53.456Z,77.33
2019-05-17T02:25:29.147Z,77.27
2019-05-17T02:26:06.706Z,76.94
2019-05-17T02:26:42.641Z,77.02
2019-05-17T02:27:21.411Z,77.20
2019-05-17T02:27:56.808Z,77.17
2019-05-17T02:28:32.746Z,76.87
2019-05-17T02:29:08.726Z,76.72
2019-05-17T02:29:44.742Z,76.78
2019-05-17T02:30:23.345Z,76.88
2019-05-17T02:30:58.882Z,77.03
2019-05-17T02:31:35.673Z,77.16
2019-05-17T02:32:12.851Z,77.00
2019-05-17T02:32:53.850Z,77.06
2019-05-17T02:33:28.431Z,76.81
2019-05-17T02:34:04.760Z,76.70
2019-05-17T02:34:42.995Z,76.71
2019-05-17T02:35:18.561Z,76.67
2019-05-17T02:35:54.765Z,76.67
2019-05-17T02:36:33.236Z,76.55
2019-05-17T02:37:08.184Z,76.76
2019-05-17T02:37:44.238Z,76.50
2019-05-17T02:38:22.446Z,76.68
2019-05-17T02:38:58.187Z,76.55
2019-05-17T02:39:51.857Z,76.16
2019-05-17T02:40:14.677Z,76.30
2019-05-17T02:40:53.249Z,76.45
2019-05-17T02:41:28.178Z,76.41
2019-05-17T02:42:03.871Z,76.50
2019-05-17T02:42:42.972Z,76.68
2019-05-17T02:43:18.092Z,76.90
2019-05-17T02:43:53.736Z,76.80
2019-05-17T02:44:33.169Z,76.94
2019-05-17T02:45:08.070Z,77.02
2019-05-17T02:45:43.737Z,77.11
2019-05-17T02:46:23.028Z,77.19
2019-05-17T02:46:57.772Z,77.14
2019-05-17T02:47:34.114Z,77.03
2019-05-17T02:48:13.154Z,77.00
2019-05-17T02:48:48.091Z,77.09
2019-05-17T02:49:24.231Z,77.04
2019-05-17T02:50:00.621Z,76.86
2019-05-17T02:50:36.447Z,76.77
2019-05-17T02:51:13.165Z,76.90
2019-05-17T02:51:52.560Z,76.76
2019-05-17T02:52:27.667Z,76.83
2019-05-17T02:53:04.855Z,76.85
2019-05-17T02:53:42.964Z,76.85
2019-05-17T02:54:19.346Z,76.44
2019-05-17T02:54:55.000Z,75.91
2019-05-17T02:55:32.387Z,76.04
2019-05-17T02:56:08.466Z,76.12
2019-05-17T02:56:44.124Z,75.93
2019-05-17T02:57:23.323Z,76.22
2019-05-17T02:57:58.131Z,76.47
2019-05-17T02:58:33.770Z,76.22
2019-05-17T02:59:13.141Z,76.22
2019-05-17T02:59:47.296Z,76.62
2019-05-17T03:00:24.176Z,76.70
2019-05-17T03:01:03.475Z,76.73
2019-05-17T03:01:38.504Z,76.76
2019-05-17T03:02:14.464Z,76.85
2019-05-17T03:02:53.679Z,76.92
2019-05-17T03:03:29.115Z,76.64
2019-05-17T03:04:05.053Z,76.67
2019-05-17T03:04:43.292Z,76.83
2019-05-17T03:05:23.259Z,76.76
2019-05-17T03:05:58.207Z,76.76
2019-05-17T03:06:34.543Z,77.06
2019-05-17T03:07:13.567Z,77.02
2019-05-17T03:07:47.878Z,77.01
2019-05-17T03:08:24.385Z,77.14
2019-05-17T03:09:03.235Z,76.96
2019-05-17T03:09:37.844Z,76.87
2019-05-17T03:10:23.876Z,76.77
2019-05-17T03:10:53.660Z,76.73
2019-05-17T03:11:33.030Z,76.51
2019-05-17T03:12:08.112Z,76.77
2019-05-17T03:12:44.885Z,76.77
2019-05-17T03:13:23.461Z,76.78
2019-05-17T03:13:58.812Z,76.69
2019-05-17T03:14:34.631Z,76.59
2019-05-17T03:15:13.029Z,76.53
2019-05-17T03:15:48.434Z,76.53
2019-05-17T03:16:24.318Z,76.56
2019-05-17T03:17:02.911Z,76.65
2019-05-17T03:17:37.775Z,76.46
2019-05-17T03:18:13.696Z,76.30
2019-05-17T03:18:49.314Z,76.15
2019-05-17T03:19:25.397Z,76.27
2019-05-17T03:20:04.015Z,76.47
2019-05-17T03:20:38.547Z,76.51
2019-05-17T03:21:14.564Z,76.58
2019-05-17T03:21:53.305Z,76.67
2019-05-17T03:22:28.097Z,76.74
2019-05-17T03:23:04.442Z,76.93
2019-05-17T03:23:43.290Z,76.70
2019-05-17T03:24:17.864Z,76.43
2019-05-17T03:24:53.864Z,76.33
2019-05-17T03:25:33.003Z,76.32
2019-05-17T03:26:07.133Z,76.04
2019-05-17T03:26:43.356Z,76.18
2019-05-17T03:27:19.359Z,76.37
2019-05-17T03:27:55.088Z,76.23
2019-05-17T03:28:33.721Z,76.07
2019-05-17T03:29:08.645Z,76.15
2019-05-17T03:29:44.291Z,75.90
2019-05-17T03:30:25.326Z,75.90
2019-05-17T03:30:58.336Z,76.10
2019-05-17T03:31:41.920Z,76.33
2019-05-17T03:32:17.397Z,76.60
2019-05-17T03:32:55.479Z,76.78
2019-05-17T03:33:28.281Z,76.66
2019-05-17T03:34:06.310Z,76.64
2019-05-17T03:34:44.922Z,76.81
2019-05-17T03:35:25.887Z,77.03
2019-05-17T03:36:05.419Z,77.13
2019-05-17T03:36:37.325Z,76.48
2019-05-17T03:37:15.934Z,75.81
2019-05-17T03:37:53.187Z,75.69
2019-05-17T03:38:32.350Z,76.03
2019-05-17T03:39:07.654Z,75.99
2019-05-17T03:39:44.040Z,75.96
2019-05-17T03:40:36.307Z,76.06
2019-05-17T03:41:09.474Z,75.88
2019-05-17T03:41:35.097Z,76.12
2019-05-17T03:42:13.223Z,76.35
2019-05-17T03:42:48.627Z,76.51
2019-05-17T03:43:25.768Z,76.53
2019-05-17T03:44:03.225Z,76.62
2019-05-17T03:44:39.322Z,76.62
2019-05-17T03:45:16.025Z,76.62
2019-05-17T03:45:53.329Z,76.72
2019-05-17T03:46:29.606Z,76.72
2019-05-17T03:47:05.987Z,76.76
2019-05-17T03:47:44.647Z,76.66
2019-05-17T03:48:22.159Z,76.66
2019-05-17T03:48:57.695Z,76.69
2019-05-17T03:49:33.867Z,76.95
2019-05-17T03:50:13.091Z,77.14
2019-05-17T03:50:47.745Z,77.05
2019-05-17T03:51:23.615Z,76.99
2019-05-17T03:52:02.455Z,76.90
2019-05-17T03:52:37.516Z,76.75
2019-05-17T03:53:13.731Z,76.49
2019-05-17T03:53:49.351Z,76.29
2019-05-17T03:54:25.818Z,76.39
2019-05-17T03:55:04.077Z,76.46
2019-05-17T03:55:39.334Z,76.35
2019-05-17T03:56:15.645Z,75.77
2019-05-17T03:56:53.213Z,75.41
2019-05-17T03:57:29.294Z,75.48
2019-05-17T03:58:05.337Z,75.43
2019-05-17T03:58:43.398Z,75.44
2019-05-17T03:59:18.469Z,75.56
2019-05-17T03:59:54.489Z,75.81
2019-05-17T04:00:30.786Z,75.90
2019-05-17T04:01:06.553Z,75.92
2019-05-17T04:01:43.662Z,76.14
2019-05-17T04:02:22.832Z,76.07
2019-05-17T04:02:57.169Z,76.15
2019-05-17T04:03:35.498Z,76.12
2019-05-17T04:04:13.383Z,75.77
2019-05-17T04:04:47.984Z,76.07
2019-05-17T04:05:24.090Z,76.30
2019-05-17T04:05:59.937Z,76.33
2019-05-17T04:06:36.534Z,76.30
2019-05-17T04:07:12.954Z,76.05
2019-05-17T04:07:48.893Z,76.13
2019-05-17T04:08:24.830Z,76.09
2019-05-17T04:09:03.701Z,76.12
2019-05-17T04:09:38.798Z,76.09
2019-05-17T04:10:15.483Z,76.08
2019-05-17T04:10:52.971Z,76.09
2019-05-17T04:11:35.275Z,75.85
2019-05-17T04:12:06.856Z,75.52
2019-05-17T04:12:44.407Z,75.50
2019-05-17T04:13:23.148Z,75.61
2019-05-17T04:13:58.546Z,75.82
2019-05-17T04:14:34.545Z,75.75
2019-05-17T04:15:13.388Z,75.68
2019-05-17T04:15:48.987Z,75.79
2019-05-17T04:16:25.041Z,75.70
2019-05-17T04:17:03.039Z,75.69
2019-05-17T04:17:38.637Z,75.89
2019-05-17T04:18:14.762Z,75.94
2019-05-17T04:18:53.288Z,75.88
2019-05-17T04:19:28.251Z,75.77
2019-05-17T04:20:04.296Z,75.81
2019-05-17T04:20:43.060Z,75.96
2019-05-17T04:21:17.545Z,75.89
2019-05-17T04:21:54.001Z,75.52
2019-05-17T04:22:33.056Z,75.56
2019-05-17T04:23:08.072Z,75.56
2019-05-17T04:23:44.372Z,75.50
2019-05-17T04:24:22.916Z,75.57
2019-05-17T04:24:57.963Z,75.85
2019-05-17T04:25:34.376Z,75.85
2019-05-17T04:26:13.270Z,75.25
2019-05-17T04:26:47.905Z,75.10
2019-05-17T04:27:23.954Z,75.00
2019-05-17T04:28:02.782Z,74.87
2019-05-17T04:28:37.646Z,74.90
2019-05-17T04:29:13.920Z,75.04
2019-05-17T04:29:53.018Z,75.00
2019-05-17T04:30:27.261Z,74.90
2019-05-17T04:31:03.525Z,74.92
2019-05-17T04:31:43.123Z,75.00
2019-05-17T04:32:17.034Z,75.01
2019-05-17T04:32:53.402Z,74.98
2019-05-17T04:33:29.837Z,74.92
2019-05-17T04:34:05.560Z,74.55
2019-05-17T04:34:43.738Z,74.76
2019-05-17T04:35:19.236Z,74.94
2019-05-17T04:35:55.289Z,75.10
2019-05-17T04:36:32.328Z,75.17
2019-05-17T04:37:09.011Z,75.20
2019-05-17T04:37:45.223Z,75.22
2019-05-17T04:38:23.599Z,75.23
2019-05-17T04:39:02.212Z,75.22
2019-05-17T04:39:37.108Z,74.86
2019-05-17T04:40:14.541Z,74.76
2019-05-17T04:40:53.454Z,74.76
2019-05-17T04:41:44.170Z,74.70
2019-05-17T04:42:05.881Z,74.33
2019-05-17T04:42:43.835Z,73.93
2019-05-17T04:43:19.077Z,74.14
2019-05-17T04:43:56.155Z,74.23
2019-05-17T04:44:32.381Z,74.43
2019-05-17T04:45:08.387Z,74.20
2019-05-17T04:45:44.395Z,74.33
2019-05-17T04:46:23.645Z,74.47
2019-05-17T04:46:58.022Z,74.59
2019-05-17T04:47:34.433Z,74.85
2019-05-17T04:48:13.218Z,74.85
2019-05-17T04:48:48.429Z,74.51
2019-05-17T04:49:24.540Z,74.64
2019-05-17T04:50:03.994Z,74.53
2019-05-17T04:50:38.561Z,74.45
2019-05-17T04:51:14.984Z,74.33
2019-05-17T04:51:52.602Z,74.64
2019-05-17T04:52:28.761Z,74.30
2019-05-17T04:53:04.882Z,73.42
2019-05-17T04:53:43.019Z,73.22
2019-05-17T04:54:18.934Z,73.38
2019-05-17T04:54:55.324Z,73.48
2019-05-17T04:55:34.341Z,73.83
2019-05-17T04:56:09.058Z,74.30
2019-05-17T04:56:45.066Z,74.48
2019-05-17T04:57:23.189Z,74.46
2019-05-17T04:57:59.439Z,74.20
2019-05-17T04:58:35.434Z,74.11
2019-05-17T04:59:13.830Z,74.32
2019-05-17T04:59:48.906Z,74.44
2019-05-17T05:00:25.057Z,74.43
2019-05-17T05:01:03.961Z,74.00
2019-05-17T05:01:38.638Z,74.03
2019-05-17T05:02:14.671Z,74.16
2019-05-17T05:02:52.703Z,74.05
2019-05-17T05:03:28.444Z,73.99
2019-05-17T05:04:04.500Z,73.50
2019-05-17T05:04:43.499Z,73.57
2019-05-17T05:05:18.158Z,73.62
2019-05-17T05:05:54.754Z,73.19
2019-05-17T05:06:32.948Z,73.15
2019-05-17T05:07:08.429Z,73.24
2019-05-17T05:07:44.435Z,73.69
2019-05-17T05:08:22.468Z,73.84
2019-05-17T05:08:57.687Z,73.93
2019-05-17T05:09:34.105Z,73.99
2019-05-17T05:10:13.448Z,73.95
2019-05-17T05:10:48.318Z,73.77
2019-05-17T05:11:24.818Z,73.80
2019-05-17T05:12:05.835Z,73.71
2019-05-17T05:12:39.333Z,73.79
2019-05-17T05:13:15.487Z,73.64
2019-05-17T05:13:53.102Z,73.74
2019-05-17T05:14:28.832Z,73.57
2019-05-17T05:15:05.080Z,73.38
2019-05-17T05:15:44.028Z,73.60
2019-05-17T05:16:22.445Z,73.52
2019-05-17T05:16:57.723Z,73.66
2019-05-17T05:17:33.664Z,73.74
2019-05-17T05:18:12.902Z,73.81
2019-05-17T05:18:47.386Z,73.83
2019-05-17T05:19:23.208Z,73.41
2019-05-17T05:19:58.915Z,72.77
2019-05-17T05:20:34.949Z,72.25
2019-05-17T05:21:12.241Z,72.06
2019-05-17T05:21:48.772Z,72.03
2019-05-17T05:22:24.842Z,72.18
2019-05-17T05:23:02.647Z,72.13
2019-05-17T05:23:38.595Z,72.24
2019-05-17T05:24:14.692Z,72.50
2019-05-17T05:24:52.503Z,72.85
2019-05-17T05:25:28.750Z,72.86
2019-05-17T05:26:05.490Z,72.81
2019-05-17T05:26:42.511Z,72.81
2019-05-17T05:27:18.934Z,72.37
2019-05-17T05:27:55.009Z,72.52
2019-05-17T05:28:31.790Z,72.35
2019-05-17T05:29:07.832Z,71.82
2019-05-17T05:29:43.821Z,72.03
2019-05-17T05:30:19.636Z,72.35
2019-05-17T05:30:55.332Z,72.65
2019-05-17T05:31:32.254Z,72.87
2019-05-17T05:32:08.179Z,72.82
2019-05-17T05:32:44.196Z,72.97
2019-05-17T05:33:22.172Z,72.89
2019-05-17T05:33:57.916Z,72.55
2019-05-17T05:34:33.674Z,72.55
2019-05-17T05:35:12.415Z,72.29
2019-05-17T05:35:48.629Z,71.94
2019-05-17T05:36:24.677Z,71.41
2019-05-17T05:37:02.179Z,71.36
2019-05-17T05:37:38.192Z,71.40
2019-05-17T05:38:14.291Z,71.33
2019-05-17T05:38:51.567Z,71.65
2019-05-17T05:39:27.619Z,71.87
2019-05-17T05:40:03.827Z,70.49
2019-05-17T05:40:41.406Z,70.49
2019-05-17T05:41:17.714Z,70.67
2019-05-17T05:42:06.379Z,70.74
2019-05-17T05:42:31.535Z,71.02
2019-05-17T05:43:07.652Z,71.36
2019-05-17T05:43:43.369Z,71.33
2019-05-17T05:44:21.502Z,70.78
2019-05-17T05:44:57.523Z,70.92
2019-05-17T05:45:33.581Z,70.96
2019-05-17T05:46:11.676Z,70.92
2019-05-17T05:46:47.957Z,70.91
2019-05-17T05:47:23.649Z,71.13
2019-05-17T05:48:01.791Z,71.07
2019-05-17T05:48:38.281Z,71.22
2019-05-17T05:49:13.926Z,71.08
2019-05-17T05:49:51.920Z,71.42
2019-05-17T05:50:27.561Z,71.49
2019-05-17T05:51:04.918Z,71.16
2019-05-17T05:51:42.436Z,71.18
2019-05-17T05:52:18.495Z,70.73
2019-05-17T05:52:55.617Z,70.97
2019-05-17T05:53:32.569Z,70.97
2019-05-17T05:54:08.539Z,70.94
2019-05-17T05:54:44.563Z,71.09
2019-05-17T05:55:23.422Z,71.11
2019-05-17T05:55:58.916Z,70.88
2019-05-17T05:56:34.696Z,70.92
2019-05-17T05:57:12.594Z,70.88
2019-05-17T05:57:48.700Z,70.88
2019-05-17T05:58:24.826Z,71.12
2019-05-17T05:59:02.965Z,71.24
2019-05-17T05:59:38.497Z,71.12
2019-05-17T06:00:16.453Z,71.11
2019-05-17T06:00:53.289Z,71.11
2019-05-17T06:01:29.652Z,71.01
2019-05-17T06:02:05.778Z,71.04
2019-05-17T06:02:42.120Z,71.25
2019-05-17T06:03:18.083Z,71.07
2019-05-17T06:03:54.217Z,71.07
2019-05-17T06:04:31.879Z,71.09
2019-05-17T06:05:08.061Z,71.29
2019-05-17T06:05:43.817Z,71.22
2019-05-17T06:06:21.557Z,70.88
2019-05-17T06:06:57.926Z,70.35
2019-05-17T06:07:33.620Z,70.02
2019-05-17T06:08:11.949Z,69.90
2019-05-17T06:08:47.732Z,69.89
2019-05-17T06:09:23.482Z,69.99
2019-05-17T06:10:02.037Z,70.19
2019-05-17T06:10:39.455Z,70.37
2019-05-17T06:11:14.779Z,70.22
2019-05-17T06:11:51.930Z,70.07
2019-05-17T06:12:28.273Z,70.25
2019-05-17T06:13:04.470Z,70.20
2019-05-17T06:13:41.861Z,70.34
2019-05-17T06:14:17.782Z,70.32
2019-05-17T06:14:53.467Z,70.26
2019-05-17T06:15:31.937Z,69.97
2019-05-17T06:16:07.477Z,69.91
2019-05-17T06:16:43.102Z,69.99
2019-05-17T06:17:21.478Z,69.99
2019-05-17T06:17:57.220Z,69.70
2019-05-17T06:18:33.688Z,69.72
2019-05-17T06:19:11.615Z,69.74
2019-05-17T06:19:47.691Z,69.86
2019-05-17T06:20:24.367Z,69.66
2019-05-17T06:21:02.725Z,70.04
2019-05-17T06:21:38.717Z,70.04
2019-05-17T06:22:14.363Z,70.09
2019-05-17T06:22:51.833Z,70.20
2019-05-17T06:23:28.103Z,70.13
2019-05-17T06:24:03.855Z,69.90
2019-05-17T06:24:42.345Z,69.34
2019-05-17T06:25:18.122Z,68.92
2019-05-17T06:25:53.929Z,68.56
2019-05-17T06:26:31.518Z,68.71
2019-05-17T06:27:07.523Z,68.57
2019-05-17T06:27:43.257Z,68.57
2019-05-17T06:28:19.268Z,68.24
2019-05-17T06:28:55.309Z,67.95
2019-05-17T06:29:32.772Z,68.30
2019-05-17T06:30:09.385Z,68.46
2019-05-17T06:30:45.583Z,68.16
2019-05-17T06:31:21.223Z,67.77
2019-05-17T06:31:57.764Z,68.03
2019-05-17T06:32:33.953Z,68.25
2019-05-17T06:33:12.075Z,68.24
2019-05-17T06:33:48.198Z,68.38
2019-05-17T06:34:24.085Z,68.56
2019-05-17T06:35:01.890Z,68.52
2019-05-17T06:35:37.561Z,68.82
2019-05-17T06:36:13.794Z,69.05
2019-05-17T06:36:49.878Z,69.06
2019-05-17T06:37:26.542Z,68.94
2019-05-17T06:38:03.051Z,68.87
2019-05-17T06:38:38.688Z,68.32
2019-05-17T06:39:15.079Z,68.98
2019-05-17T06:39:52.665Z,68.98
2019-05-17T06:40:29.074Z,68.34
2019-05-17T06:41:05.267Z,68.17
2019-05-17T06:41:41.985Z,68.17
2019-05-17T06:42:18.191Z,67.87
2019-05-17T06:42:54.576Z,68.12
2019-05-17T06:43:32.303Z,68.12
2019-05-17T06:44:08.113Z,68.25
2019-05-17T06:44:44.126Z,68.36
2019-05-17T06:45:22.101Z,68.36
2019-05-17T06:45:58.066Z,68.22
2019-05-17T06:46:34.847Z,68.05
2019-05-17T06:47:11.939Z,67.35
2019-05-17T06:47:48.378Z,67.43
2019-05-17T06:48:24.853Z,67.67
2019-05-17T06:49:02.944Z,67.76
2019-05-17T06:49:38.165Z,67.81
2019-05-17T06:50:15.214Z,68.02
2019-05-17T06:50:51.955Z,67.68
2019-05-17T06:51:27.882Z,67.39
2019-05-17T06:52:03.949Z,67.39
2019-05-17T06:52:39.769Z,68.02
2019-05-17T06:53:15.794Z,68.02
2019-05-17T06:53:52.396Z,67.98
2019-05-17T06:54:29.138Z,67.65
2019-05-17T06:55:06.067Z,67.64
2019-05-17T06:55:42.861Z,67.65
2019-05-17T06:56:19.184Z,67.78
2019-05-17T06:56:54.906Z,67.72
2019-05-17T06:57:32.489Z,67.55
2019-05-17T06:58:08.531Z,66.69
2019-05-17T06:58:44.164Z,66.81
2019-05-17T06:59:20.647Z,66.82
2019-05-17T06:59:56.498Z,66.92
2019-05-17T07:00:32.841Z,67.54
2019-05-17T07:01:09.511Z,66.53
2019-05-17T07:01:45.446Z,66.52
2019-05-17T07:02:21.699Z,66.70
2019-05-17T07:03:00.562Z,66.32
2019-05-17T07:03:35.638Z,65.96
2019-05-17T07:04:11.309Z,65.92
2019-05-17T07:04:48.036Z,65.93
2019-05-17T07:05:29.343Z,65.93
2019-05-17T07:06:06.507Z,65.98
2019-05-17T07:06:42.544Z,65.91
2019-05-17T07:07:30.351Z,65.62
2019-05-17T07:08:05.356Z,65.34
2019-05-17T07:08:41.637Z,64.64
2019-05-17T07:09:19.519Z,64.30
2019-05-17T07:09:55.965Z,64.11
2019-05-17T07:10:32.029Z,64.09
2019-05-17T07:11:09.790Z,64.23
2019-05-17T07:11:45.602Z,64.52
2019-05-17T07:12:21.621Z,64.58
2019-05-17T07:12:59.602Z,64.80
2019-05-17T07:13:35.349Z,64.88
2019-05-17T07:14:11.746Z,64.69
2019-05-17T07:14:47.570Z,64.71
2019-05-17T07:15:23.614Z,64.82
2019-05-17T07:16:00.415Z,64.79
2019-05-17T07:16:39.594Z,64.47
2019-05-17T07:17:15.261Z,64.66
2019-05-17T07:17:51.275Z,64.40
2019-05-17T07:18:27.182Z,64.36
2019-05-17T07:19:03.631Z,64.23
2019-05-17T07:19:40.257Z,64.32
2019-05-17T07:20:16.802Z,64.39
2019-05-17T07:20:52.856Z,64.26
2019-05-17T07:21:29.727Z,64.71
2019-05-17T07:22:05.763Z,64.42
2019-05-17T07:22:41.707Z,63.47
2019-05-17T07:23:19.681Z,63.47
2019-05-17T07:23:56.262Z,62.34
2019-05-17T07:24:33.362Z,62.28
2019-05-17T07:25:10.733Z,62.70
2019-05-17T07:25:47.503Z,62.87
2019-05-17T07:26:23.813Z,62.54
2019-05-17T07:27:00.218Z,62.88
2019-05-17T07:27:41.275Z,62.62
2019-05-17T07:28:13.685Z,62.69
2019-05-17T07:28:50.298Z,62.91
2019-05-17T07:29:27.142Z,62.78
2019-05-17T07:30:02.846Z,62.54
2019-05-17T07:30:40.058Z,62.32
2019-05-17T07:31:16.141Z,61.96
2019-05-17T07:31:51.893Z,62.08
2019-05-17T07:32:29.751Z,61.50
2019-05-17T07:33:06.408Z,61.03
2019-05-17T07:33:42.349Z,60.41
2019-05-17T07:34:19.995Z,60.22
2019-05-17T07:34:56.824Z,60.51
2019-05-17T07:35:32.617Z,60.51
2019-05-17T07:36:10.206Z,60.58
2019-05-17T07:36:46.499Z,60.68
2019-05-17T07:37:22.280Z,60.95
2019-05-17T07:37:59.513Z,61.00
2019-05-17T07:38:35.520Z,60.93
2019-05-17T07:39:11.144Z,60.67
2019-05-17T07:39:57.806Z,60.19
2019-05-17T07:40:25.036Z,59.94
2019-05-17T07:41:00.708Z,60.10
2019-05-17T07:41:36.717Z,59.85
2019-05-17T07:42:13.787Z,60.33
2019-05-17T07:42:50.129Z,59.79
2019-05-17T07:43:27.013Z,59.47
2019-05-17T07:44:02.887Z,59.77
2019-05-17T07:44:40.235Z,59.17
2019-05-17T07:45:17.000Z,59.20
2019-05-17T07:45:53.461Z,58.71
2019-05-17T07:46:29.980Z,58.52
2019-05-17T07:47:06.582Z,59.01
2019-05-17T07:47:43.430Z,59.42
2019-05-17T07:48:20.070Z,59.73
2019-05-17T07:48:56.989Z,59.57
2019-05-17T07:49:33.839Z,59.57
2019-05-17T07:50:11.233Z,59.42
2019-05-17T07:50:50.196Z,59.45
2019-05-17T07:51:26.339Z,59.84
2019-05-17T07:52:02.374Z,59.64